<?xml version="1.0" encoding="UTF-8" standalone="no" ?>
<gpx xmlns="http://www.topografix.com/GPX/1/1" xmlns:xsi="http://www.w3.org/2001/XMLSchema-instance" xsi:schemaLocation="http://www.topografix.com/GPX/1/1 http://www.topografix.com/GPX/1/1/gpx.xsd" version="1.1" creator="VisuGPX - https://www.visugpx.com">
  <metadata>
    <name>Les balades du confinement</name>
  </metadata>
  <trk>
    <name><![CDATA[25 mars]]></name>
    <trkseg>
      <trkpt lat="43.54923" lon="1.47739">
        <ele>214.832</ele>
        <time>2020-03-25T15:42:00Z</time>
      </trkpt>
      <trkpt lat="43.54917" lon="1.47743">
        <ele>214.031</ele>
        <time>2020-03-25T15:42:05Z</time>
      </trkpt>
      <trkpt lat="43.54913" lon="1.47747">
        <ele>213.538</ele>
        <time>2020-03-25T15:42:11Z</time>
      </trkpt>
      <trkpt lat="43.54908" lon="1.47748">
        <ele>213.781</ele>
        <time>2020-03-25T15:42:16Z</time>
      </trkpt>
      <trkpt lat="43.54901" lon="1.47753">
        <ele>213.68</ele>
        <time>2020-03-25T15:42:22Z</time>
      </trkpt>
      <trkpt lat="43.54894" lon="1.47756">
        <ele>213.542</ele>
        <time>2020-03-25T15:42:28Z</time>
      </trkpt>
      <trkpt lat="43.54888" lon="1.47758">
        <ele>213.415</ele>
        <time>2020-03-25T15:42:34Z</time>
      </trkpt>
      <trkpt lat="43.54883" lon="1.47762">
        <ele>213.267</ele>
        <time>2020-03-25T15:42:40Z</time>
      </trkpt>
      <trkpt lat="43.54877" lon="1.47765">
        <ele>213.125</ele>
        <time>2020-03-25T15:42:45Z</time>
      </trkpt>
      <trkpt lat="43.54872" lon="1.47769">
        <ele>212.968</ele>
        <time>2020-03-25T15:42:50Z</time>
      </trkpt>
      <trkpt lat="43.54866" lon="1.47771">
        <ele>212.768</ele>
        <time>2020-03-25T15:42:56Z</time>
      </trkpt>
      <trkpt lat="43.5486" lon="1.47775">
        <ele>212.584</ele>
        <time>2020-03-25T15:43:02Z</time>
      </trkpt>
      <trkpt lat="43.54856" lon="1.47776">
        <ele>212.452</ele>
        <time>2020-03-25T15:43:07Z</time>
      </trkpt>
      <trkpt lat="43.54852" lon="1.47778">
        <ele>212.282</ele>
        <time>2020-03-25T15:43:13Z</time>
      </trkpt>
      <trkpt lat="43.54846" lon="1.47782">
        <ele>212.064</ele>
        <time>2020-03-25T15:43:19Z</time>
      </trkpt>
      <trkpt lat="43.5484" lon="1.47785">
        <ele>211.818</ele>
        <time>2020-03-25T15:43:24Z</time>
      </trkpt>
      <trkpt lat="43.54834" lon="1.4779">
        <ele>211.535</ele>
        <time>2020-03-25T15:43:29Z</time>
      </trkpt>
      <trkpt lat="43.54829" lon="1.47794">
        <ele>211.235</ele>
        <time>2020-03-25T15:43:34Z</time>
      </trkpt>
      <trkpt lat="43.54822" lon="1.47798">
        <ele>210.886</ele>
        <time>2020-03-25T15:43:40Z</time>
      </trkpt>
      <trkpt lat="43.54816" lon="1.47803">
        <ele>210.589</ele>
        <time>2020-03-25T15:43:45Z</time>
      </trkpt>
      <trkpt lat="43.54811" lon="1.4781">
        <ele>210.277</ele>
        <time>2020-03-25T15:43:51Z</time>
      </trkpt>
      <trkpt lat="43.54807" lon="1.47812">
        <ele>210.038</ele>
        <time>2020-03-25T15:43:56Z</time>
      </trkpt>
      <trkpt lat="43.54801" lon="1.47816">
        <ele>209.793</ele>
        <time>2020-03-25T15:44:01Z</time>
      </trkpt>
      <trkpt lat="43.54796" lon="1.47821">
        <ele>209.501</ele>
        <time>2020-03-25T15:44:07Z</time>
      </trkpt>
      <trkpt lat="43.54792" lon="1.47824">
        <ele>209.275</ele>
        <time>2020-03-25T15:44:12Z</time>
      </trkpt>
      <trkpt lat="43.54787" lon="1.4783">
        <ele>209.035</ele>
        <time>2020-03-25T15:44:18Z</time>
      </trkpt>
      <trkpt lat="43.54782" lon="1.47836">
        <ele>208.86</ele>
        <time>2020-03-25T15:44:23Z</time>
      </trkpt>
      <trkpt lat="43.54777" lon="1.47842">
        <ele>208.704</ele>
        <time>2020-03-25T15:44:29Z</time>
      </trkpt>
      <trkpt lat="43.5477" lon="1.47851">
        <ele>208.549</ele>
        <time>2020-03-25T15:44:34Z</time>
      </trkpt>
      <trkpt lat="43.54765" lon="1.47857">
        <ele>208.441</ele>
        <time>2020-03-25T15:44:39Z</time>
      </trkpt>
      <trkpt lat="43.5476" lon="1.47864">
        <ele>208.346</ele>
        <time>2020-03-25T15:44:45Z</time>
      </trkpt>
      <trkpt lat="43.54757" lon="1.4787">
        <ele>208.268</ele>
        <time>2020-03-25T15:44:51Z</time>
      </trkpt>
      <trkpt lat="43.54754" lon="1.47881">
        <ele>208.192</ele>
        <time>2020-03-25T15:44:57Z</time>
      </trkpt>
      <trkpt lat="43.54756" lon="1.47888">
        <ele>208.145</ele>
        <time>2020-03-25T15:45:02Z</time>
      </trkpt>
      <trkpt lat="43.5476" lon="1.47897">
        <ele>208.113</ele>
        <time>2020-03-25T15:45:07Z</time>
      </trkpt>
      <trkpt lat="43.54763" lon="1.47906">
        <ele>208.079</ele>
        <time>2020-03-25T15:45:13Z</time>
      </trkpt>
      <trkpt lat="43.54767" lon="1.47914">
        <ele>208.065</ele>
        <time>2020-03-25T15:45:18Z</time>
      </trkpt>
      <trkpt lat="43.5477" lon="1.47921">
        <ele>208.059</ele>
        <time>2020-03-25T15:45:23Z</time>
      </trkpt>
      <trkpt lat="43.54771" lon="1.47928">
        <ele>208.061</ele>
        <time>2020-03-25T15:45:29Z</time>
      </trkpt>
      <trkpt lat="43.54773" lon="1.47935">
        <ele>208.07</ele>
        <time>2020-03-25T15:45:35Z</time>
      </trkpt>
      <trkpt lat="43.54775" lon="1.47943">
        <ele>208.084</ele>
        <time>2020-03-25T15:45:41Z</time>
      </trkpt>
      <trkpt lat="43.54778" lon="1.47949">
        <ele>208.099</ele>
        <time>2020-03-25T15:45:46Z</time>
      </trkpt>
      <trkpt lat="43.5478" lon="1.47955">
        <ele>208.115</ele>
        <time>2020-03-25T15:45:51Z</time>
      </trkpt>
      <trkpt lat="43.54783" lon="1.47963">
        <ele>208.139</ele>
        <time>2020-03-25T15:45:57Z</time>
      </trkpt>
      <trkpt lat="43.54786" lon="1.47976">
        <ele>208.17</ele>
        <time>2020-03-25T15:46:03Z</time>
      </trkpt>
      <trkpt lat="43.54788" lon="1.47984">
        <ele>208.2</ele>
        <time>2020-03-25T15:46:08Z</time>
      </trkpt>
      <trkpt lat="43.54789" lon="1.47994">
        <ele>208.243</ele>
        <time>2020-03-25T15:46:14Z</time>
      </trkpt>
      <trkpt lat="43.54791" lon="1.47999">
        <ele>208.282</ele>
        <time>2020-03-25T15:46:20Z</time>
      </trkpt>
      <trkpt lat="43.54796" lon="1.48005">
        <ele>208.327</ele>
        <time>2020-03-25T15:46:26Z</time>
      </trkpt>
      <trkpt lat="43.54797" lon="1.4801">
        <ele>208.361</ele>
        <time>2020-03-25T15:46:31Z</time>
      </trkpt>
      <trkpt lat="43.548" lon="1.4802">
        <ele>208.408</ele>
        <time>2020-03-25T15:46:37Z</time>
      </trkpt>
      <trkpt lat="43.54802" lon="1.48026">
        <ele>208.456</ele>
        <time>2020-03-25T15:46:42Z</time>
      </trkpt>
      <trkpt lat="43.54804" lon="1.48031">
        <ele>208.505</ele>
        <time>2020-03-25T15:46:47Z</time>
      </trkpt>
      <trkpt lat="43.54805" lon="1.48036">
        <ele>208.564</ele>
        <time>2020-03-25T15:46:53Z</time>
      </trkpt>
      <trkpt lat="43.5481" lon="1.48047">
        <ele>208.605</ele>
        <time>2020-03-25T15:46:58Z</time>
      </trkpt>
      <trkpt lat="43.54811" lon="1.48051">
        <ele>208.629</ele>
        <time>2020-03-25T15:47:03Z</time>
      </trkpt>
      <trkpt lat="43.54811" lon="1.48051">
        <ele>208.631</ele>
        <time>2020-03-25T15:47:09Z</time>
      </trkpt>
      <trkpt lat="43.54813" lon="1.48054">
        <ele>208.623</ele>
        <time>2020-03-25T15:47:15Z</time>
      </trkpt>
      <trkpt lat="43.54815" lon="1.48059">
        <ele>208.61</ele>
        <time>2020-03-25T15:47:20Z</time>
      </trkpt>
      <trkpt lat="43.54817" lon="1.48067">
        <ele>208.591</ele>
        <time>2020-03-25T15:47:26Z</time>
      </trkpt>
      <trkpt lat="43.5482" lon="1.48076">
        <ele>208.574</ele>
        <time>2020-03-25T15:47:32Z</time>
      </trkpt>
      <trkpt lat="43.54823" lon="1.48085">
        <ele>208.564</ele>
        <time>2020-03-25T15:47:38Z</time>
      </trkpt>
      <trkpt lat="43.54826" lon="1.48096">
        <ele>208.561</ele>
        <time>2020-03-25T15:47:44Z</time>
      </trkpt>
      <trkpt lat="43.5483" lon="1.48106">
        <ele>208.575</ele>
        <time>2020-03-25T15:47:50Z</time>
      </trkpt>
      <trkpt lat="43.54833" lon="1.48114">
        <ele>208.6</ele>
        <time>2020-03-25T15:47:55Z</time>
      </trkpt>
      <trkpt lat="43.54835" lon="1.48122">
        <ele>208.636</ele>
        <time>2020-03-25T15:48:00Z</time>
      </trkpt>
      <trkpt lat="43.54838" lon="1.48133">
        <ele>208.689</ele>
        <time>2020-03-25T15:48:06Z</time>
      </trkpt>
      <trkpt lat="43.54841" lon="1.48139">
        <ele>208.756</ele>
        <time>2020-03-25T15:48:12Z</time>
      </trkpt>
      <trkpt lat="43.54843" lon="1.48148">
        <ele>208.83</ele>
        <time>2020-03-25T15:48:18Z</time>
      </trkpt>
      <trkpt lat="43.54846" lon="1.48157">
        <ele>208.897</ele>
        <time>2020-03-25T15:48:23Z</time>
      </trkpt>
      <trkpt lat="43.54849" lon="1.48163">
        <ele>208.982</ele>
        <time>2020-03-25T15:48:29Z</time>
      </trkpt>
      <trkpt lat="43.54852" lon="1.48171">
        <ele>209.072</ele>
        <time>2020-03-25T15:48:35Z</time>
      </trkpt>
      <trkpt lat="43.54854" lon="1.4818">
        <ele>209.163</ele>
        <time>2020-03-25T15:48:41Z</time>
      </trkpt>
      <trkpt lat="43.54857" lon="1.48185">
        <ele>209.238</ele>
        <time>2020-03-25T15:48:46Z</time>
      </trkpt>
      <trkpt lat="43.5486" lon="1.48192">
        <ele>209.32</ele>
        <time>2020-03-25T15:48:52Z</time>
      </trkpt>
      <trkpt lat="43.54862" lon="1.48197">
        <ele>209.385</ele>
        <time>2020-03-25T15:48:58Z</time>
      </trkpt>
      <trkpt lat="43.54864" lon="1.48205">
        <ele>209.426</ele>
        <time>2020-03-25T15:49:03Z</time>
      </trkpt>
      <trkpt lat="43.54866" lon="1.48214">
        <ele>209.459</ele>
        <time>2020-03-25T15:49:08Z</time>
      </trkpt>
      <trkpt lat="43.54869" lon="1.48222">
        <ele>209.493</ele>
        <time>2020-03-25T15:49:14Z</time>
      </trkpt>
      <trkpt lat="43.5487" lon="1.48233">
        <ele>209.519</ele>
        <time>2020-03-25T15:49:20Z</time>
      </trkpt>
      <trkpt lat="43.54871" lon="1.4824">
        <ele>209.529</ele>
        <time>2020-03-25T15:49:25Z</time>
      </trkpt>
      <trkpt lat="43.54873" lon="1.48247">
        <ele>209.532</ele>
        <time>2020-03-25T15:49:30Z</time>
      </trkpt>
      <trkpt lat="43.54881" lon="1.48255">
        <ele>209.528</ele>
        <time>2020-03-25T15:49:36Z</time>
      </trkpt>
      <trkpt lat="43.54885" lon="1.48261">
        <ele>209.52</ele>
        <time>2020-03-25T15:49:41Z</time>
      </trkpt>
      <trkpt lat="43.54886" lon="1.48269">
        <ele>209.51</ele>
        <time>2020-03-25T15:49:46Z</time>
      </trkpt>
      <trkpt lat="43.54889" lon="1.48277">
        <ele>209.498</ele>
        <time>2020-03-25T15:49:51Z</time>
      </trkpt>
      <trkpt lat="43.54892" lon="1.48285">
        <ele>209.482</ele>
        <time>2020-03-25T15:49:56Z</time>
      </trkpt>
      <trkpt lat="43.54895" lon="1.48295">
        <ele>209.466</ele>
        <time>2020-03-25T15:50:02Z</time>
      </trkpt>
      <trkpt lat="43.54898" lon="1.48302">
        <ele>209.451</ele>
        <time>2020-03-25T15:50:08Z</time>
      </trkpt>
      <trkpt lat="43.54901" lon="1.48305">
        <ele>209.439</ele>
        <time>2020-03-25T15:50:14Z</time>
      </trkpt>
      <trkpt lat="43.54903" lon="1.48311">
        <ele>209.421</ele>
        <time>2020-03-25T15:50:20Z</time>
      </trkpt>
      <trkpt lat="43.54905" lon="1.48319">
        <ele>209.404</ele>
        <time>2020-03-25T15:50:25Z</time>
      </trkpt>
      <trkpt lat="43.54907" lon="1.48326">
        <ele>209.385</ele>
        <time>2020-03-25T15:50:31Z</time>
      </trkpt>
      <trkpt lat="43.54911" lon="1.48331">
        <ele>209.371</ele>
        <time>2020-03-25T15:50:36Z</time>
      </trkpt>
      <trkpt lat="43.54911" lon="1.48331">
        <ele>209.369</ele>
        <time>2020-03-25T15:50:41Z</time>
      </trkpt>
      <trkpt lat="43.54912" lon="1.48332">
        <ele>209.364</ele>
        <time>2020-03-25T15:50:47Z</time>
      </trkpt>
      <trkpt lat="43.54912" lon="1.48332">
        <ele>209.359</ele>
        <time>2020-03-25T15:50:53Z</time>
      </trkpt>
      <trkpt lat="43.54912" lon="1.48333">
        <ele>209.353</ele>
        <time>2020-03-25T15:50:58Z</time>
      </trkpt>
      <trkpt lat="43.54912" lon="1.48335">
        <ele>209.302</ele>
        <time>2020-03-25T15:51:03Z</time>
      </trkpt>
      <trkpt lat="43.54912" lon="1.48335">
        <ele>209.236</ele>
        <time>2020-03-25T15:51:09Z</time>
      </trkpt>
      <trkpt lat="43.54909" lon="1.48331">
        <ele>209.169</ele>
        <time>2020-03-25T15:51:15Z</time>
      </trkpt>
      <trkpt lat="43.54906" lon="1.48321">
        <ele>209.106</ele>
        <time>2020-03-25T15:51:21Z</time>
      </trkpt>
      <trkpt lat="43.54903" lon="1.48314">
        <ele>209.057</ele>
        <time>2020-03-25T15:51:26Z</time>
      </trkpt>
      <trkpt lat="43.54901" lon="1.48302">
        <ele>209.004</ele>
        <time>2020-03-25T15:51:32Z</time>
      </trkpt>
      <trkpt lat="43.549" lon="1.48299">
        <ele>208.962</ele>
        <time>2020-03-25T15:51:37Z</time>
      </trkpt>
      <trkpt lat="43.549" lon="1.48294">
        <ele>208.914</ele>
        <time>2020-03-25T15:51:43Z</time>
      </trkpt>
      <trkpt lat="43.54898" lon="1.48286">
        <ele>208.872</ele>
        <time>2020-03-25T15:51:48Z</time>
      </trkpt>
      <trkpt lat="43.54892" lon="1.48273">
        <ele>208.821</ele>
        <time>2020-03-25T15:51:54Z</time>
      </trkpt>
      <trkpt lat="43.54888" lon="1.48267">
        <ele>208.771</ele>
        <time>2020-03-25T15:52:00Z</time>
      </trkpt>
      <trkpt lat="43.54885" lon="1.48259">
        <ele>208.728</ele>
        <time>2020-03-25T15:52:06Z</time>
      </trkpt>
      <trkpt lat="43.54883" lon="1.48254">
        <ele>208.696</ele>
        <time>2020-03-25T15:52:11Z</time>
      </trkpt>
      <trkpt lat="43.54881" lon="1.48248">
        <ele>208.651</ele>
        <time>2020-03-25T15:52:17Z</time>
      </trkpt>
      <trkpt lat="43.54878" lon="1.4824">
        <ele>208.598</ele>
        <time>2020-03-25T15:52:23Z</time>
      </trkpt>
      <trkpt lat="43.54875" lon="1.48231">
        <ele>208.538</ele>
        <time>2020-03-25T15:52:29Z</time>
      </trkpt>
      <trkpt lat="43.54875" lon="1.4822">
        <ele>208.474</ele>
        <time>2020-03-25T15:52:35Z</time>
      </trkpt>
      <trkpt lat="43.54873" lon="1.48211">
        <ele>208.423</ele>
        <time>2020-03-25T15:52:40Z</time>
      </trkpt>
      <trkpt lat="43.5487" lon="1.48207">
        <ele>208.371</ele>
        <time>2020-03-25T15:52:45Z</time>
      </trkpt>
      <trkpt lat="43.54866" lon="1.482">
        <ele>208.311</ele>
        <time>2020-03-25T15:52:51Z</time>
      </trkpt>
      <trkpt lat="43.54862" lon="1.48193">
        <ele>208.263</ele>
        <time>2020-03-25T15:52:56Z</time>
      </trkpt>
      <trkpt lat="43.54858" lon="1.48182">
        <ele>208.202</ele>
        <time>2020-03-25T15:53:02Z</time>
      </trkpt>
      <trkpt lat="43.54853" lon="1.48178">
        <ele>208.147</ele>
        <time>2020-03-25T15:53:08Z</time>
      </trkpt>
      <trkpt lat="43.54848" lon="1.48181">
        <ele>208.1</ele>
        <time>2020-03-25T15:53:13Z</time>
      </trkpt>
      <trkpt lat="43.54845" lon="1.48188">
        <ele>208.036</ele>
        <time>2020-03-25T15:53:19Z</time>
      </trkpt>
      <trkpt lat="43.5484" lon="1.48194">
        <ele>207.974</ele>
        <time>2020-03-25T15:53:25Z</time>
      </trkpt>
      <trkpt lat="43.54837" lon="1.482">
        <ele>207.93</ele>
        <time>2020-03-25T15:53:30Z</time>
      </trkpt>
      <trkpt lat="43.54833" lon="1.48207">
        <ele>207.885</ele>
        <time>2020-03-25T15:53:36Z</time>
      </trkpt>
      <trkpt lat="43.54828" lon="1.48211">
        <ele>207.851</ele>
        <time>2020-03-25T15:53:41Z</time>
      </trkpt>
      <trkpt lat="43.54823" lon="1.48217">
        <ele>207.814</ele>
        <time>2020-03-25T15:53:47Z</time>
      </trkpt>
      <trkpt lat="43.54819" lon="1.48222">
        <ele>207.783</ele>
        <time>2020-03-25T15:53:52Z</time>
      </trkpt>
      <trkpt lat="43.54812" lon="1.48227">
        <ele>207.749</ele>
        <time>2020-03-25T15:53:58Z</time>
      </trkpt>
      <trkpt lat="43.54805" lon="1.48234">
        <ele>207.711</ele>
        <time>2020-03-25T15:54:04Z</time>
      </trkpt>
      <trkpt lat="43.54799" lon="1.4824">
        <ele>207.671</ele>
        <time>2020-03-25T15:54:10Z</time>
      </trkpt>
      <trkpt lat="43.54795" lon="1.48243">
        <ele>207.64</ele>
        <time>2020-03-25T15:54:15Z</time>
      </trkpt>
      <trkpt lat="43.5479" lon="1.48248">
        <ele>207.614</ele>
        <time>2020-03-25T15:54:20Z</time>
      </trkpt>
      <trkpt lat="43.54786" lon="1.48255">
        <ele>207.582</ele>
        <time>2020-03-25T15:54:26Z</time>
      </trkpt>
      <trkpt lat="43.54781" lon="1.48262">
        <ele>207.552</ele>
        <time>2020-03-25T15:54:32Z</time>
      </trkpt>
      <trkpt lat="43.54775" lon="1.48269">
        <ele>207.517</ele>
        <time>2020-03-25T15:54:38Z</time>
      </trkpt>
      <trkpt lat="43.54771" lon="1.48275">
        <ele>207.489</ele>
        <time>2020-03-25T15:54:44Z</time>
      </trkpt>
      <trkpt lat="43.54768" lon="1.48278">
        <ele>207.471</ele>
        <time>2020-03-25T15:54:49Z</time>
      </trkpt>
      <trkpt lat="43.54763" lon="1.48282">
        <ele>207.458</ele>
        <time>2020-03-25T15:54:55Z</time>
      </trkpt>
      <trkpt lat="43.54758" lon="1.48285">
        <ele>207.445</ele>
        <time>2020-03-25T15:55:01Z</time>
      </trkpt>
      <trkpt lat="43.54753" lon="1.48288">
        <ele>207.431</ele>
        <time>2020-03-25T15:55:06Z</time>
      </trkpt>
      <trkpt lat="43.54749" lon="1.48292">
        <ele>207.409</ele>
        <time>2020-03-25T15:55:11Z</time>
      </trkpt>
      <trkpt lat="43.54745" lon="1.48295">
        <ele>207.385</ele>
        <time>2020-03-25T15:55:16Z</time>
      </trkpt>
      <trkpt lat="43.54738" lon="1.48298">
        <ele>207.356</ele>
        <time>2020-03-25T15:55:22Z</time>
      </trkpt>
      <trkpt lat="43.5473" lon="1.48295">
        <ele>207.33</ele>
        <time>2020-03-25T15:55:28Z</time>
      </trkpt>
      <trkpt lat="43.54727" lon="1.48293">
        <ele>207.311</ele>
        <time>2020-03-25T15:55:33Z</time>
      </trkpt>
      <trkpt lat="43.54723" lon="1.48291">
        <ele>207.309</ele>
        <time>2020-03-25T15:55:38Z</time>
      </trkpt>
      <trkpt lat="43.54718" lon="1.48289">
        <ele>207.318</ele>
        <time>2020-03-25T15:55:44Z</time>
      </trkpt>
      <trkpt lat="43.54712" lon="1.48286">
        <ele>207.327</ele>
        <time>2020-03-25T15:55:50Z</time>
      </trkpt>
      <trkpt lat="43.54707" lon="1.48284">
        <ele>207.334</ele>
        <time>2020-03-25T15:55:56Z</time>
      </trkpt>
      <trkpt lat="43.547" lon="1.48282">
        <ele>207.336</ele>
        <time>2020-03-25T15:56:01Z</time>
      </trkpt>
      <trkpt lat="43.54692" lon="1.48275">
        <ele>207.343</ele>
        <time>2020-03-25T15:56:07Z</time>
      </trkpt>
      <trkpt lat="43.54688" lon="1.48274">
        <ele>207.346</ele>
        <time>2020-03-25T15:56:12Z</time>
      </trkpt>
      <trkpt lat="43.5468" lon="1.48273">
        <ele>207.351</ele>
        <time>2020-03-25T15:56:17Z</time>
      </trkpt>
      <trkpt lat="43.54674" lon="1.48272">
        <ele>207.353</ele>
        <time>2020-03-25T15:56:23Z</time>
      </trkpt>
      <trkpt lat="43.5467" lon="1.48271">
        <ele>207.351</ele>
        <time>2020-03-25T15:56:29Z</time>
      </trkpt>
      <trkpt lat="43.54666" lon="1.48269">
        <ele>207.347</ele>
        <time>2020-03-25T15:56:35Z</time>
      </trkpt>
      <trkpt lat="43.54658" lon="1.48269">
        <ele>207.345</ele>
        <time>2020-03-25T15:56:41Z</time>
      </trkpt>
      <trkpt lat="43.54652" lon="1.48266">
        <ele>207.342</ele>
        <time>2020-03-25T15:56:47Z</time>
      </trkpt>
      <trkpt lat="43.54644" lon="1.48265">
        <ele>207.34</ele>
        <time>2020-03-25T15:56:53Z</time>
      </trkpt>
      <trkpt lat="43.54636" lon="1.48263">
        <ele>207.337</ele>
        <time>2020-03-25T15:56:59Z</time>
      </trkpt>
      <trkpt lat="43.54626" lon="1.48261">
        <ele>207.334</ele>
        <time>2020-03-25T15:57:04Z</time>
      </trkpt>
      <trkpt lat="43.54616" lon="1.48259">
        <ele>207.326</ele>
        <time>2020-03-25T15:57:10Z</time>
      </trkpt>
      <trkpt lat="43.54611" lon="1.48259">
        <ele>207.318</ele>
        <time>2020-03-25T15:57:15Z</time>
      </trkpt>
      <trkpt lat="43.54609" lon="1.48261">
        <ele>207.31</ele>
        <time>2020-03-25T15:57:21Z</time>
      </trkpt>
      <trkpt lat="43.54603" lon="1.48257">
        <ele>207.302</ele>
        <time>2020-03-25T15:57:27Z</time>
      </trkpt>
      <trkpt lat="43.54597" lon="1.48256">
        <ele>207.293</ele>
        <time>2020-03-25T15:57:33Z</time>
      </trkpt>
      <trkpt lat="43.5459" lon="1.48255">
        <ele>207.285</ele>
        <time>2020-03-25T15:57:39Z</time>
      </trkpt>
      <trkpt lat="43.54583" lon="1.4825">
        <ele>207.276</ele>
        <time>2020-03-25T15:57:45Z</time>
      </trkpt>
      <trkpt lat="43.54574" lon="1.48247">
        <ele>207.263</ele>
        <time>2020-03-25T15:57:51Z</time>
      </trkpt>
      <trkpt lat="43.5457" lon="1.48245">
        <ele>207.244</ele>
        <time>2020-03-25T15:57:57Z</time>
      </trkpt>
      <trkpt lat="43.54567" lon="1.48245">
        <ele>207.221</ele>
        <time>2020-03-25T15:58:02Z</time>
      </trkpt>
      <trkpt lat="43.54565" lon="1.48251">
        <ele>207.184</ele>
        <time>2020-03-25T15:58:08Z</time>
      </trkpt>
      <trkpt lat="43.54558" lon="1.48247">
        <ele>207.122</ele>
        <time>2020-03-25T15:58:14Z</time>
      </trkpt>
      <trkpt lat="43.54548" lon="1.48245">
        <ele>207.057</ele>
        <time>2020-03-25T15:58:20Z</time>
      </trkpt>
      <trkpt lat="43.54541" lon="1.48244">
        <ele>207.003</ele>
        <time>2020-03-25T15:58:25Z</time>
      </trkpt>
      <trkpt lat="43.54535" lon="1.4824">
        <ele>206.937</ele>
        <time>2020-03-25T15:58:31Z</time>
      </trkpt>
      <trkpt lat="43.5453" lon="1.48236">
        <ele>206.88</ele>
        <time>2020-03-25T15:58:36Z</time>
      </trkpt>
      <trkpt lat="43.54524" lon="1.4823">
        <ele>206.81</ele>
        <time>2020-03-25T15:58:42Z</time>
      </trkpt>
      <trkpt lat="43.5452" lon="1.48225">
        <ele>206.736</ele>
        <time>2020-03-25T15:58:48Z</time>
      </trkpt>
      <trkpt lat="43.54514" lon="1.48219">
        <ele>206.671</ele>
        <time>2020-03-25T15:58:53Z</time>
      </trkpt>
      <trkpt lat="43.54507" lon="1.48215">
        <ele>206.59</ele>
        <time>2020-03-25T15:58:59Z</time>
      </trkpt>
      <trkpt lat="43.54501" lon="1.48213">
        <ele>206.503</ele>
        <time>2020-03-25T15:59:05Z</time>
      </trkpt>
      <trkpt lat="43.54495" lon="1.48212">
        <ele>206.43</ele>
        <time>2020-03-25T15:59:10Z</time>
      </trkpt>
      <trkpt lat="43.54487" lon="1.48213">
        <ele>206.363</ele>
        <time>2020-03-25T15:59:16Z</time>
      </trkpt>
      <trkpt lat="43.54486" lon="1.48213">
        <ele>206.359</ele>
        <time>2020-03-25T15:59:22Z</time>
      </trkpt>
      <trkpt lat="43.54486" lon="1.48213">
        <ele>206.356</ele>
        <time>2020-03-25T15:59:28Z</time>
      </trkpt>
      <trkpt lat="43.54485" lon="1.48212">
        <ele>206.354</ele>
        <time>2020-03-25T15:59:34Z</time>
      </trkpt>
      <trkpt lat="43.54485" lon="1.48212">
        <ele>206.354</ele>
        <time>2020-03-25T15:59:39Z</time>
      </trkpt>
      <trkpt lat="43.54484" lon="1.48212">
        <ele>206.36</ele>
        <time>2020-03-25T15:59:44Z</time>
      </trkpt>
      <trkpt lat="43.54484" lon="1.48212">
        <ele>206.363</ele>
        <time>2020-03-25T15:59:50Z</time>
      </trkpt>
      <trkpt lat="43.54484" lon="1.48212">
        <ele>206.367</ele>
        <time>2020-03-25T15:59:55Z</time>
      </trkpt>
      <trkpt lat="43.54483" lon="1.48211">
        <ele>206.385</ele>
        <time>2020-03-25T16:00:01Z</time>
      </trkpt>
      <trkpt lat="43.54482" lon="1.48209">
        <ele>206.425</ele>
        <time>2020-03-25T16:00:07Z</time>
      </trkpt>
      <trkpt lat="43.54483" lon="1.48206">
        <ele>206.439</ele>
        <time>2020-03-25T16:00:12Z</time>
      </trkpt>
      <trkpt lat="43.54483" lon="1.48202">
        <ele>206.47</ele>
        <time>2020-03-25T16:00:18Z</time>
      </trkpt>
      <trkpt lat="43.54483" lon="1.48203">
        <ele>206.482</ele>
        <time>2020-03-25T16:00:23Z</time>
      </trkpt>
      <trkpt lat="43.54483" lon="1.48204">
        <ele>206.499</ele>
        <time>2020-03-25T16:00:28Z</time>
      </trkpt>
      <trkpt lat="43.54482" lon="1.48204">
        <ele>206.502</ele>
        <time>2020-03-25T16:00:33Z</time>
      </trkpt>
      <trkpt lat="43.54482" lon="1.48203">
        <ele>206.506</ele>
        <time>2020-03-25T16:00:39Z</time>
      </trkpt>
      <trkpt lat="43.54482" lon="1.48203">
        <ele>206.51</ele>
        <time>2020-03-25T16:00:44Z</time>
      </trkpt>
      <trkpt lat="43.54482" lon="1.48203">
        <ele>206.516</ele>
        <time>2020-03-25T16:00:50Z</time>
      </trkpt>
      <trkpt lat="43.54482" lon="1.48203">
        <ele>206.521</ele>
        <time>2020-03-25T16:00:55Z</time>
      </trkpt>
      <trkpt lat="43.54482" lon="1.48202">
        <ele>206.567</ele>
        <time>2020-03-25T16:01:01Z</time>
      </trkpt>
      <trkpt lat="43.54482" lon="1.48201">
        <ele>206.589</ele>
        <time>2020-03-25T16:01:06Z</time>
      </trkpt>
      <trkpt lat="43.54482" lon="1.48201">
        <ele>206.629</ele>
        <time>2020-03-25T16:01:12Z</time>
      </trkpt>
      <trkpt lat="43.54482" lon="1.48201">
        <ele>206.643</ele>
        <time>2020-03-25T16:01:18Z</time>
      </trkpt>
      <trkpt lat="43.54482" lon="1.48202">
        <ele>206.647</ele>
        <time>2020-03-25T16:01:23Z</time>
      </trkpt>
      <trkpt lat="43.54481" lon="1.48202">
        <ele>206.652</ele>
        <time>2020-03-25T16:01:29Z</time>
      </trkpt>
      <trkpt lat="43.54481" lon="1.48203">
        <ele>206.656</ele>
        <time>2020-03-25T16:01:34Z</time>
      </trkpt>
      <trkpt lat="43.54482" lon="1.48203">
        <ele>206.689</ele>
        <time>2020-03-25T16:01:39Z</time>
      </trkpt>
      <trkpt lat="43.54482" lon="1.48201">
        <ele>206.711</ele>
        <time>2020-03-25T16:01:45Z</time>
      </trkpt>
      <trkpt lat="43.54482" lon="1.482">
        <ele>206.731</ele>
        <time>2020-03-25T16:01:51Z</time>
      </trkpt>
      <trkpt lat="43.54482" lon="1.48199">
        <ele>206.749</ele>
        <time>2020-03-25T16:01:56Z</time>
      </trkpt>
      <trkpt lat="43.54482" lon="1.48198">
        <ele>206.76</ele>
        <time>2020-03-25T16:02:02Z</time>
      </trkpt>
      <trkpt lat="43.54484" lon="1.48198">
        <ele>206.777</ele>
        <time>2020-03-25T16:02:07Z</time>
      </trkpt>
      <trkpt lat="43.54486" lon="1.482">
        <ele>206.82</ele>
        <time>2020-03-25T16:02:13Z</time>
      </trkpt>
      <trkpt lat="43.54484" lon="1.48202">
        <ele>206.849</ele>
        <time>2020-03-25T16:02:18Z</time>
      </trkpt>
      <trkpt lat="43.54479" lon="1.48199">
        <ele>206.876</ele>
        <time>2020-03-25T16:02:24Z</time>
      </trkpt>
      <trkpt lat="43.54476" lon="1.48197">
        <ele>206.89</ele>
        <time>2020-03-25T16:02:29Z</time>
      </trkpt>
      <trkpt lat="43.54472" lon="1.48196">
        <ele>206.894</ele>
        <time>2020-03-25T16:02:35Z</time>
      </trkpt>
      <trkpt lat="43.54466" lon="1.48192">
        <ele>206.889</ele>
        <time>2020-03-25T16:02:40Z</time>
      </trkpt>
      <trkpt lat="43.5446" lon="1.48189">
        <ele>206.873</ele>
        <time>2020-03-25T16:02:46Z</time>
      </trkpt>
      <trkpt lat="43.54454" lon="1.48187">
        <ele>206.851</ele>
        <time>2020-03-25T16:02:51Z</time>
      </trkpt>
      <trkpt lat="43.54449" lon="1.48186">
        <ele>206.826</ele>
        <time>2020-03-25T16:02:56Z</time>
      </trkpt>
      <trkpt lat="43.54446" lon="1.48183">
        <ele>206.801</ele>
        <time>2020-03-25T16:03:01Z</time>
      </trkpt>
      <trkpt lat="43.5444" lon="1.4818">
        <ele>206.77</ele>
        <time>2020-03-25T16:03:07Z</time>
      </trkpt>
      <trkpt lat="43.54438" lon="1.48177">
        <ele>206.737</ele>
        <time>2020-03-25T16:03:13Z</time>
      </trkpt>
      <trkpt lat="43.54434" lon="1.48172">
        <ele>206.706</ele>
        <time>2020-03-25T16:03:19Z</time>
      </trkpt>
      <trkpt lat="43.54432" lon="1.48168">
        <ele>206.684</ele>
        <time>2020-03-25T16:03:24Z</time>
      </trkpt>
      <trkpt lat="43.54428" lon="1.48165">
        <ele>206.658</ele>
        <time>2020-03-25T16:03:30Z</time>
      </trkpt>
      <trkpt lat="43.5442" lon="1.48165">
        <ele>206.634</ele>
        <time>2020-03-25T16:03:36Z</time>
      </trkpt>
      <trkpt lat="43.54414" lon="1.48162">
        <ele>206.612</ele>
        <time>2020-03-25T16:03:41Z</time>
      </trkpt>
      <trkpt lat="43.5441" lon="1.48154">
        <ele>206.586</ele>
        <time>2020-03-25T16:03:47Z</time>
      </trkpt>
      <trkpt lat="43.54401" lon="1.48153">
        <ele>206.564</ele>
        <time>2020-03-25T16:03:52Z</time>
      </trkpt>
      <trkpt lat="43.54393" lon="1.48151">
        <ele>206.544</ele>
        <time>2020-03-25T16:03:57Z</time>
      </trkpt>
      <trkpt lat="43.54384" lon="1.48147">
        <ele>206.523</ele>
        <time>2020-03-25T16:04:03Z</time>
      </trkpt>
      <trkpt lat="43.54372" lon="1.48145">
        <ele>206.499</ele>
        <time>2020-03-25T16:04:09Z</time>
      </trkpt>
      <trkpt lat="43.54364" lon="1.48147">
        <ele>206.481</ele>
        <time>2020-03-25T16:04:15Z</time>
      </trkpt>
      <trkpt lat="43.54359" lon="1.48149">
        <ele>206.462</ele>
        <time>2020-03-25T16:04:20Z</time>
      </trkpt>
      <trkpt lat="43.54352" lon="1.48152">
        <ele>206.438</ele>
        <time>2020-03-25T16:04:25Z</time>
      </trkpt>
      <trkpt lat="43.54346" lon="1.48155">
        <ele>206.407</ele>
        <time>2020-03-25T16:04:31Z</time>
      </trkpt>
      <trkpt lat="43.54338" lon="1.48158">
        <ele>206.368</ele>
        <time>2020-03-25T16:04:37Z</time>
      </trkpt>
      <trkpt lat="43.54333" lon="1.48161">
        <ele>206.325</ele>
        <time>2020-03-25T16:04:43Z</time>
      </trkpt>
      <trkpt lat="43.54329" lon="1.48167">
        <ele>206.276</ele>
        <time>2020-03-25T16:04:49Z</time>
      </trkpt>
      <trkpt lat="43.54324" lon="1.48171">
        <ele>206.226</ele>
        <time>2020-03-25T16:04:55Z</time>
      </trkpt>
      <trkpt lat="43.54319" lon="1.48175">
        <ele>206.177</ele>
        <time>2020-03-25T16:05:01Z</time>
      </trkpt>
      <trkpt lat="43.54313" lon="1.48178">
        <ele>206.137</ele>
        <time>2020-03-25T16:05:07Z</time>
      </trkpt>
      <trkpt lat="43.54308" lon="1.48182">
        <ele>206.108</ele>
        <time>2020-03-25T16:05:13Z</time>
      </trkpt>
      <trkpt lat="43.54303" lon="1.48186">
        <ele>206.096</ele>
        <time>2020-03-25T16:05:18Z</time>
      </trkpt>
      <trkpt lat="43.54299" lon="1.4819">
        <ele>206.097</ele>
        <time>2020-03-25T16:05:24Z</time>
      </trkpt>
      <trkpt lat="43.54292" lon="1.48196">
        <ele>206.103</ele>
        <time>2020-03-25T16:05:30Z</time>
      </trkpt>
      <trkpt lat="43.54287" lon="1.482">
        <ele>206.107</ele>
        <time>2020-03-25T16:05:36Z</time>
      </trkpt>
      <trkpt lat="43.54283" lon="1.48204">
        <ele>206.11</ele>
        <time>2020-03-25T16:05:41Z</time>
      </trkpt>
      <trkpt lat="43.54278" lon="1.48211">
        <ele>206.117</ele>
        <time>2020-03-25T16:05:47Z</time>
      </trkpt>
      <trkpt lat="43.54272" lon="1.48217">
        <ele>206.128</ele>
        <time>2020-03-25T16:05:53Z</time>
      </trkpt>
      <trkpt lat="43.54268" lon="1.4822">
        <ele>206.137</ele>
        <time>2020-03-25T16:05:58Z</time>
      </trkpt>
      <trkpt lat="43.54263" lon="1.48224">
        <ele>206.148</ele>
        <time>2020-03-25T16:06:04Z</time>
      </trkpt>
      <trkpt lat="43.5426" lon="1.48229">
        <ele>206.153</ele>
        <time>2020-03-25T16:06:09Z</time>
      </trkpt>
      <trkpt lat="43.54254" lon="1.48235">
        <ele>206.154</ele>
        <time>2020-03-25T16:06:15Z</time>
      </trkpt>
      <trkpt lat="43.54248" lon="1.48239">
        <ele>206.155</ele>
        <time>2020-03-25T16:06:21Z</time>
      </trkpt>
      <trkpt lat="43.54241" lon="1.48243">
        <ele>206.158</ele>
        <time>2020-03-25T16:06:27Z</time>
      </trkpt>
      <trkpt lat="43.54234" lon="1.48248">
        <ele>206.162</ele>
        <time>2020-03-25T16:06:33Z</time>
      </trkpt>
      <trkpt lat="43.54229" lon="1.48253">
        <ele>206.165</ele>
        <time>2020-03-25T16:06:39Z</time>
      </trkpt>
      <trkpt lat="43.54225" lon="1.48257">
        <ele>206.163</ele>
        <time>2020-03-25T16:06:44Z</time>
      </trkpt>
      <trkpt lat="43.5422" lon="1.48261">
        <ele>206.156</ele>
        <time>2020-03-25T16:06:50Z</time>
      </trkpt>
      <trkpt lat="43.54214" lon="1.48266">
        <ele>206.147</ele>
        <time>2020-03-25T16:06:56Z</time>
      </trkpt>
      <trkpt lat="43.54209" lon="1.48268">
        <ele>206.141</ele>
        <time>2020-03-25T16:07:01Z</time>
      </trkpt>
      <trkpt lat="43.54203" lon="1.48276">
        <ele>206.138</ele>
        <time>2020-03-25T16:07:07Z</time>
      </trkpt>
      <trkpt lat="43.54199" lon="1.4828">
        <ele>206.138</ele>
        <time>2020-03-25T16:07:12Z</time>
      </trkpt>
      <trkpt lat="43.54194" lon="1.48279">
        <ele>206.144</ele>
        <time>2020-03-25T16:07:18Z</time>
      </trkpt>
      <trkpt lat="43.5419" lon="1.48279">
        <ele>206.151</ele>
        <time>2020-03-25T16:07:23Z</time>
      </trkpt>
      <trkpt lat="43.54186" lon="1.48278">
        <ele>206.167</ele>
        <time>2020-03-25T16:07:29Z</time>
      </trkpt>
      <trkpt lat="43.54183" lon="1.48277">
        <ele>206.183</ele>
        <time>2020-03-25T16:07:34Z</time>
      </trkpt>
      <trkpt lat="43.5418" lon="1.48275">
        <ele>206.206</ele>
        <time>2020-03-25T16:07:40Z</time>
      </trkpt>
      <trkpt lat="43.54172" lon="1.48276">
        <ele>206.23</ele>
        <time>2020-03-25T16:07:46Z</time>
      </trkpt>
      <trkpt lat="43.54168" lon="1.48276">
        <ele>206.253</ele>
        <time>2020-03-25T16:07:51Z</time>
      </trkpt>
      <trkpt lat="43.54161" lon="1.4827">
        <ele>206.284</ele>
        <time>2020-03-25T16:07:57Z</time>
      </trkpt>
      <trkpt lat="43.54156" lon="1.48265">
        <ele>206.325</ele>
        <time>2020-03-25T16:08:03Z</time>
      </trkpt>
      <trkpt lat="43.54153" lon="1.48259">
        <ele>206.367</ele>
        <time>2020-03-25T16:08:09Z</time>
      </trkpt>
      <trkpt lat="43.54146" lon="1.48255">
        <ele>206.415</ele>
        <time>2020-03-25T16:08:15Z</time>
      </trkpt>
      <trkpt lat="43.54142" lon="1.48252">
        <ele>206.466</ele>
        <time>2020-03-25T16:08:20Z</time>
      </trkpt>
      <trkpt lat="43.54138" lon="1.48247">
        <ele>206.527</ele>
        <time>2020-03-25T16:08:26Z</time>
      </trkpt>
      <trkpt lat="43.54137" lon="1.48245">
        <ele>206.585</ele>
        <time>2020-03-25T16:08:32Z</time>
      </trkpt>
      <trkpt lat="43.54135" lon="1.48238">
        <ele>206.647</ele>
        <time>2020-03-25T16:08:38Z</time>
      </trkpt>
      <trkpt lat="43.54136" lon="1.48233">
        <ele>206.699</ele>
        <time>2020-03-25T16:08:43Z</time>
      </trkpt>
      <trkpt lat="43.54138" lon="1.48228">
        <ele>206.767</ele>
        <time>2020-03-25T16:08:49Z</time>
      </trkpt>
      <trkpt lat="43.54135" lon="1.48222">
        <ele>206.824</ele>
        <time>2020-03-25T16:08:54Z</time>
      </trkpt>
      <trkpt lat="43.54133" lon="1.48217">
        <ele>206.887</ele>
        <time>2020-03-25T16:09:00Z</time>
      </trkpt>
      <trkpt lat="43.54132" lon="1.48207">
        <ele>206.942</ele>
        <time>2020-03-25T16:09:06Z</time>
      </trkpt>
      <trkpt lat="43.5413" lon="1.48201">
        <ele>206.985</ele>
        <time>2020-03-25T16:09:11Z</time>
      </trkpt>
      <trkpt lat="43.54131" lon="1.48192">
        <ele>207.025</ele>
        <time>2020-03-25T16:09:16Z</time>
      </trkpt>
      <trkpt lat="43.54123" lon="1.48173">
        <ele>207.375</ele>
        <time>2020-03-25T16:09:31Z</time>
      </trkpt>
      <trkpt lat="43.54125" lon="1.48156">
        <ele>207.38</ele>
        <time>2020-03-25T16:09:36Z</time>
      </trkpt>
      <trkpt lat="43.54129" lon="1.48152">
        <ele>207.386</ele>
        <time>2020-03-25T16:09:41Z</time>
      </trkpt>
      <trkpt lat="43.54129" lon="1.48146">
        <ele>207.399</ele>
        <time>2020-03-25T16:09:47Z</time>
      </trkpt>
      <trkpt lat="43.54129" lon="1.48144">
        <ele>207.411</ele>
        <time>2020-03-25T16:09:52Z</time>
      </trkpt>
      <trkpt lat="43.54128" lon="1.4814">
        <ele>207.417</ele>
        <time>2020-03-25T16:09:57Z</time>
      </trkpt>
      <trkpt lat="43.54127" lon="1.48131">
        <ele>207.418</ele>
        <time>2020-03-25T16:10:03Z</time>
      </trkpt>
      <trkpt lat="43.54125" lon="1.4812">
        <ele>207.412</ele>
        <time>2020-03-25T16:10:09Z</time>
      </trkpt>
      <trkpt lat="43.54124" lon="1.48112">
        <ele>207.405</ele>
        <time>2020-03-25T16:10:14Z</time>
      </trkpt>
      <trkpt lat="43.54122" lon="1.48104">
        <ele>207.403</ele>
        <time>2020-03-25T16:10:19Z</time>
      </trkpt>
      <trkpt lat="43.54121" lon="1.481">
        <ele>207.402</ele>
        <time>2020-03-25T16:10:25Z</time>
      </trkpt>
      <trkpt lat="43.54119" lon="1.48094">
        <ele>207.488</ele>
        <time>2020-03-25T16:10:31Z</time>
      </trkpt>
      <trkpt lat="43.54117" lon="1.48087">
        <ele>207.579</ele>
        <time>2020-03-25T16:10:36Z</time>
      </trkpt>
      <trkpt lat="43.54115" lon="1.48078">
        <ele>207.684</ele>
        <time>2020-03-25T16:10:42Z</time>
      </trkpt>
      <trkpt lat="43.54113" lon="1.48071">
        <ele>207.773</ele>
        <time>2020-03-25T16:10:47Z</time>
      </trkpt>
      <trkpt lat="43.5411" lon="1.48065">
        <ele>207.869</ele>
        <time>2020-03-25T16:10:53Z</time>
      </trkpt>
      <trkpt lat="43.54108" lon="1.48058">
        <ele>207.954</ele>
        <time>2020-03-25T16:10:59Z</time>
      </trkpt>
      <trkpt lat="43.54106" lon="1.48049">
        <ele>208.041</ele>
        <time>2020-03-25T16:11:05Z</time>
      </trkpt>
      <trkpt lat="43.54104" lon="1.48041">
        <ele>208.14</ele>
        <time>2020-03-25T16:11:11Z</time>
      </trkpt>
      <trkpt lat="43.54101" lon="1.48033">
        <ele>208.231</ele>
        <time>2020-03-25T16:11:16Z</time>
      </trkpt>
      <trkpt lat="43.54096" lon="1.48025">
        <ele>208.358</ele>
        <time>2020-03-25T16:11:22Z</time>
      </trkpt>
      <trkpt lat="43.54091" lon="1.48019">
        <ele>208.494</ele>
        <time>2020-03-25T16:11:28Z</time>
      </trkpt>
      <trkpt lat="43.5409" lon="1.48012">
        <ele>208.615</ele>
        <time>2020-03-25T16:11:34Z</time>
      </trkpt>
      <trkpt lat="43.5409" lon="1.4801">
        <ele>208.711</ele>
        <time>2020-03-25T16:11:39Z</time>
      </trkpt>
      <trkpt lat="43.54091" lon="1.48004">
        <ele>208.871</ele>
        <time>2020-03-25T16:11:45Z</time>
      </trkpt>
      <trkpt lat="43.54094" lon="1.47997">
        <ele>209.066</ele>
        <time>2020-03-25T16:11:51Z</time>
      </trkpt>
      <trkpt lat="43.54096" lon="1.47988">
        <ele>209.27</ele>
        <time>2020-03-25T16:11:57Z</time>
      </trkpt>
      <trkpt lat="43.54101" lon="1.47985">
        <ele>209.48</ele>
        <time>2020-03-25T16:12:03Z</time>
      </trkpt>
      <trkpt lat="43.54107" lon="1.47984">
        <ele>209.697</ele>
        <time>2020-03-25T16:12:09Z</time>
      </trkpt>
      <trkpt lat="43.54112" lon="1.47981">
        <ele>209.898</ele>
        <time>2020-03-25T16:12:14Z</time>
      </trkpt>
      <trkpt lat="43.54115" lon="1.47976">
        <ele>210.161</ele>
        <time>2020-03-25T16:12:20Z</time>
      </trkpt>
      <trkpt lat="43.54119" lon="1.47972">
        <ele>210.422</ele>
        <time>2020-03-25T16:12:26Z</time>
      </trkpt>
      <trkpt lat="43.54123" lon="1.4797">
        <ele>210.639</ele>
        <time>2020-03-25T16:12:32Z</time>
      </trkpt>
      <trkpt lat="43.54125" lon="1.47969">
        <ele>210.771</ele>
        <time>2020-03-25T16:12:37Z</time>
      </trkpt>
      <trkpt lat="43.54128" lon="1.47972">
        <ele>210.927</ele>
        <time>2020-03-25T16:12:42Z</time>
      </trkpt>
      <trkpt lat="43.54132" lon="1.47973">
        <ele>211.098</ele>
        <time>2020-03-25T16:12:47Z</time>
      </trkpt>
      <trkpt lat="43.54137" lon="1.4797">
        <ele>211.258</ele>
        <time>2020-03-25T16:12:53Z</time>
      </trkpt>
      <trkpt lat="43.54148" lon="1.47972">
        <ele>211.399</ele>
        <time>2020-03-25T16:12:58Z</time>
      </trkpt>
      <trkpt lat="43.54163" lon="1.47968">
        <ele>211.535</ele>
        <time>2020-03-25T16:13:04Z</time>
      </trkpt>
      <trkpt lat="43.54167" lon="1.47964">
        <ele>211.662</ele>
        <time>2020-03-25T16:13:09Z</time>
      </trkpt>
      <trkpt lat="43.54173" lon="1.47963">
        <ele>211.807</ele>
        <time>2020-03-25T16:13:15Z</time>
      </trkpt>
      <trkpt lat="43.54179" lon="1.47964">
        <ele>211.918</ele>
        <time>2020-03-25T16:13:20Z</time>
      </trkpt>
      <trkpt lat="43.54183" lon="1.47962">
        <ele>212.022</ele>
        <time>2020-03-25T16:13:26Z</time>
      </trkpt>
      <trkpt lat="43.54183" lon="1.47957">
        <ele>212.1</ele>
        <time>2020-03-25T16:13:31Z</time>
      </trkpt>
      <trkpt lat="43.54185" lon="1.4795">
        <ele>212.197</ele>
        <time>2020-03-25T16:13:37Z</time>
      </trkpt>
      <trkpt lat="43.54189" lon="1.47944">
        <ele>212.327</ele>
        <time>2020-03-25T16:13:42Z</time>
      </trkpt>
      <trkpt lat="43.54193" lon="1.47943">
        <ele>212.458</ele>
        <time>2020-03-25T16:13:48Z</time>
      </trkpt>
      <trkpt lat="43.54196" lon="1.47941">
        <ele>212.565</ele>
        <time>2020-03-25T16:13:54Z</time>
      </trkpt>
      <trkpt lat="43.54195" lon="1.47942">
        <ele>212.576</ele>
        <time>2020-03-25T16:13:59Z</time>
      </trkpt>
      <trkpt lat="43.54196" lon="1.47941">
        <ele>212.589</ele>
        <time>2020-03-25T16:14:05Z</time>
      </trkpt>
      <trkpt lat="43.54196" lon="1.47941">
        <ele>212.644</ele>
        <time>2020-03-25T16:14:10Z</time>
      </trkpt>
      <trkpt lat="43.54202" lon="1.4794">
        <ele>212.777</ele>
        <time>2020-03-25T16:14:16Z</time>
      </trkpt>
      <trkpt lat="43.54207" lon="1.4794">
        <ele>212.874</ele>
        <time>2020-03-25T16:14:21Z</time>
      </trkpt>
      <trkpt lat="43.54213" lon="1.47946">
        <ele>212.958</ele>
        <time>2020-03-25T16:14:26Z</time>
      </trkpt>
      <trkpt lat="43.54216" lon="1.47949">
        <ele>213.04</ele>
        <time>2020-03-25T16:14:32Z</time>
      </trkpt>
      <trkpt lat="43.54218" lon="1.4795">
        <ele>213.087</ele>
        <time>2020-03-25T16:14:38Z</time>
      </trkpt>
      <trkpt lat="43.54219" lon="1.4795">
        <ele>213.121</ele>
        <time>2020-03-25T16:14:44Z</time>
      </trkpt>
      <trkpt lat="43.54227" lon="1.47948">
        <ele>213.141</ele>
        <time>2020-03-25T16:14:49Z</time>
      </trkpt>
      <trkpt lat="43.54231" lon="1.47945">
        <ele>213.151</ele>
        <time>2020-03-25T16:14:55Z</time>
      </trkpt>
      <trkpt lat="43.54239" lon="1.47944">
        <ele>213.147</ele>
        <time>2020-03-25T16:15:01Z</time>
      </trkpt>
      <trkpt lat="43.54243" lon="1.47942">
        <ele>213.139</ele>
        <time>2020-03-25T16:15:07Z</time>
      </trkpt>
      <trkpt lat="43.54248" lon="1.47938">
        <ele>213.128</ele>
        <time>2020-03-25T16:15:13Z</time>
      </trkpt>
      <trkpt lat="43.54253" lon="1.47935">
        <ele>213.111</ele>
        <time>2020-03-25T16:15:19Z</time>
      </trkpt>
      <trkpt lat="43.54257" lon="1.47942">
        <ele>213.088</ele>
        <time>2020-03-25T16:15:24Z</time>
      </trkpt>
      <trkpt lat="43.54265" lon="1.47943">
        <ele>213.067</ele>
        <time>2020-03-25T16:15:30Z</time>
      </trkpt>
      <trkpt lat="43.54272" lon="1.47945">
        <ele>213.043</ele>
        <time>2020-03-25T16:15:35Z</time>
      </trkpt>
      <trkpt lat="43.54278" lon="1.47945">
        <ele>213.012</ele>
        <time>2020-03-25T16:15:41Z</time>
      </trkpt>
      <trkpt lat="43.54283" lon="1.47943">
        <ele>212.982</ele>
        <time>2020-03-25T16:15:47Z</time>
      </trkpt>
      <trkpt lat="43.54287" lon="1.47943">
        <ele>212.957</ele>
        <time>2020-03-25T16:15:52Z</time>
      </trkpt>
      <trkpt lat="43.54293" lon="1.47939">
        <ele>212.928</ele>
        <time>2020-03-25T16:15:57Z</time>
      </trkpt>
      <trkpt lat="43.54299" lon="1.47936">
        <ele>212.89</ele>
        <time>2020-03-25T16:16:03Z</time>
      </trkpt>
      <trkpt lat="43.54301" lon="1.47937">
        <ele>212.861</ele>
        <time>2020-03-25T16:16:09Z</time>
      </trkpt>
      <trkpt lat="43.54309" lon="1.47934">
        <ele>212.83</ele>
        <time>2020-03-25T16:16:15Z</time>
      </trkpt>
      <trkpt lat="43.54324" lon="1.47936">
        <ele>212.807</ele>
        <time>2020-03-25T16:16:21Z</time>
      </trkpt>
      <trkpt lat="43.54337" lon="1.47938">
        <ele>212.79</ele>
        <time>2020-03-25T16:16:27Z</time>
      </trkpt>
      <trkpt lat="43.54343" lon="1.47939">
        <ele>212.774</ele>
        <time>2020-03-25T16:16:33Z</time>
      </trkpt>
      <trkpt lat="43.54349" lon="1.47929">
        <ele>212.764</ele>
        <time>2020-03-25T16:16:39Z</time>
      </trkpt>
      <trkpt lat="43.54353" lon="1.47924">
        <ele>212.767</ele>
        <time>2020-03-25T16:16:44Z</time>
      </trkpt>
      <trkpt lat="43.54361" lon="1.4792">
        <ele>212.777</ele>
        <time>2020-03-25T16:16:50Z</time>
      </trkpt>
      <trkpt lat="43.54364" lon="1.47918">
        <ele>212.799</ele>
        <time>2020-03-25T16:16:56Z</time>
      </trkpt>
      <trkpt lat="43.54365" lon="1.47918">
        <ele>212.818</ele>
        <time>2020-03-25T16:17:01Z</time>
      </trkpt>
      <trkpt lat="43.5437" lon="1.47918">
        <ele>212.837</ele>
        <time>2020-03-25T16:17:07Z</time>
      </trkpt>
      <trkpt lat="43.54376" lon="1.47915">
        <ele>212.867</ele>
        <time>2020-03-25T16:17:12Z</time>
      </trkpt>
      <trkpt lat="43.54384" lon="1.47914">
        <ele>212.901</ele>
        <time>2020-03-25T16:17:17Z</time>
      </trkpt>
      <trkpt lat="43.54393" lon="1.47915">
        <ele>212.936</ele>
        <time>2020-03-25T16:17:23Z</time>
      </trkpt>
      <trkpt lat="43.54395" lon="1.47914">
        <ele>212.955</ele>
        <time>2020-03-25T16:17:28Z</time>
      </trkpt>
      <trkpt lat="43.54399" lon="1.4791">
        <ele>212.997</ele>
        <time>2020-03-25T16:17:34Z</time>
      </trkpt>
      <trkpt lat="43.54402" lon="1.47902">
        <ele>213.038</ele>
        <time>2020-03-25T16:17:40Z</time>
      </trkpt>
      <trkpt lat="43.54399" lon="1.47897">
        <ele>213.074</ele>
        <time>2020-03-25T16:17:46Z</time>
      </trkpt>
      <trkpt lat="43.54402" lon="1.47892">
        <ele>213.102</ele>
        <time>2020-03-25T16:17:52Z</time>
      </trkpt>
      <trkpt lat="43.54404" lon="1.47886">
        <ele>213.119</ele>
        <time>2020-03-25T16:17:57Z</time>
      </trkpt>
      <trkpt lat="43.54426" lon="1.47891">
        <ele>213.122</ele>
        <time>2020-03-25T16:18:03Z</time>
      </trkpt>
      <trkpt lat="43.54437" lon="1.47895">
        <ele>213.115</ele>
        <time>2020-03-25T16:18:09Z</time>
      </trkpt>
      <trkpt lat="43.54446" lon="1.47896">
        <ele>213.107</ele>
        <time>2020-03-25T16:18:15Z</time>
      </trkpt>
      <trkpt lat="43.54452" lon="1.47895">
        <ele>213.099</ele>
        <time>2020-03-25T16:18:20Z</time>
      </trkpt>
      <trkpt lat="43.54456" lon="1.47889">
        <ele>213.095</ele>
        <time>2020-03-25T16:18:25Z</time>
      </trkpt>
      <trkpt lat="43.54466" lon="1.47886">
        <ele>213.093</ele>
        <time>2020-03-25T16:18:31Z</time>
      </trkpt>
      <trkpt lat="43.54471" lon="1.4788">
        <ele>213.097</ele>
        <time>2020-03-25T16:18:37Z</time>
      </trkpt>
      <trkpt lat="43.54475" lon="1.47878">
        <ele>213.102</ele>
        <time>2020-03-25T16:18:43Z</time>
      </trkpt>
      <trkpt lat="43.54479" lon="1.47876">
        <ele>213.108</ele>
        <time>2020-03-25T16:18:49Z</time>
      </trkpt>
      <trkpt lat="43.54489" lon="1.47879">
        <ele>213.113</ele>
        <time>2020-03-25T16:18:55Z</time>
      </trkpt>
      <trkpt lat="43.54494" lon="1.47881">
        <ele>213.113</ele>
        <time>2020-03-25T16:19:00Z</time>
      </trkpt>
      <trkpt lat="43.54498" lon="1.4788">
        <ele>213.111</ele>
        <time>2020-03-25T16:19:06Z</time>
      </trkpt>
      <trkpt lat="43.54503" lon="1.47879">
        <ele>213.112</ele>
        <time>2020-03-25T16:19:12Z</time>
      </trkpt>
      <trkpt lat="43.54509" lon="1.47879">
        <ele>213.109</ele>
        <time>2020-03-25T16:19:17Z</time>
      </trkpt>
      <trkpt lat="43.54516" lon="1.47877">
        <ele>213.102</ele>
        <time>2020-03-25T16:19:23Z</time>
      </trkpt>
      <trkpt lat="43.54521" lon="1.47873">
        <ele>213.094</ele>
        <time>2020-03-25T16:19:29Z</time>
      </trkpt>
      <trkpt lat="43.54524" lon="1.47871">
        <ele>213.09</ele>
        <time>2020-03-25T16:19:34Z</time>
      </trkpt>
      <trkpt lat="43.54531" lon="1.47872">
        <ele>213.084</ele>
        <time>2020-03-25T16:19:40Z</time>
      </trkpt>
      <trkpt lat="43.54536" lon="1.47873">
        <ele>213.089</ele>
        <time>2020-03-25T16:19:45Z</time>
      </trkpt>
      <trkpt lat="43.54545" lon="1.47873">
        <ele>213.096</ele>
        <time>2020-03-25T16:19:50Z</time>
      </trkpt>
      <trkpt lat="43.54551" lon="1.47873">
        <ele>213.107</ele>
        <time>2020-03-25T16:19:55Z</time>
      </trkpt>
      <trkpt lat="43.54555" lon="1.47871">
        <ele>213.118</ele>
        <time>2020-03-25T16:20:01Z</time>
      </trkpt>
      <trkpt lat="43.5456" lon="1.47869">
        <ele>213.127</ele>
        <time>2020-03-25T16:20:07Z</time>
      </trkpt>
      <trkpt lat="43.54565" lon="1.47868">
        <ele>213.139</ele>
        <time>2020-03-25T16:20:13Z</time>
      </trkpt>
      <trkpt lat="43.5457" lon="1.47865">
        <ele>213.152</ele>
        <time>2020-03-25T16:20:19Z</time>
      </trkpt>
      <trkpt lat="43.54576" lon="1.47862">
        <ele>213.158</ele>
        <time>2020-03-25T16:20:25Z</time>
      </trkpt>
      <trkpt lat="43.54585" lon="1.47856">
        <ele>213.163</ele>
        <time>2020-03-25T16:20:31Z</time>
      </trkpt>
      <trkpt lat="43.5459" lon="1.47854">
        <ele>213.159</ele>
        <time>2020-03-25T16:20:37Z</time>
      </trkpt>
      <trkpt lat="43.54597" lon="1.47851">
        <ele>213.152</ele>
        <time>2020-03-25T16:20:43Z</time>
      </trkpt>
      <trkpt lat="43.54604" lon="1.47847">
        <ele>213.154</ele>
        <time>2020-03-25T16:20:48Z</time>
      </trkpt>
      <trkpt lat="43.5461" lon="1.4784">
        <ele>213.163</ele>
        <time>2020-03-25T16:20:54Z</time>
      </trkpt>
      <trkpt lat="43.54615" lon="1.47837">
        <ele>213.18</ele>
        <time>2020-03-25T16:21:00Z</time>
      </trkpt>
      <trkpt lat="43.54617" lon="1.47835">
        <ele>213.192</ele>
        <time>2020-03-25T16:21:06Z</time>
      </trkpt>
      <trkpt lat="43.54619" lon="1.47835">
        <ele>213.197</ele>
        <time>2020-03-25T16:21:11Z</time>
      </trkpt>
      <trkpt lat="43.54629" lon="1.47837">
        <ele>213.2</ele>
        <time>2020-03-25T16:21:17Z</time>
      </trkpt>
      <trkpt lat="43.54635" lon="1.47839">
        <ele>213.206</ele>
        <time>2020-03-25T16:21:23Z</time>
      </trkpt>
      <trkpt lat="43.54641" lon="1.47839">
        <ele>213.214</ele>
        <time>2020-03-25T16:21:29Z</time>
      </trkpt>
      <trkpt lat="43.54648" lon="1.47843">
        <ele>213.215</ele>
        <time>2020-03-25T16:21:35Z</time>
      </trkpt>
      <trkpt lat="43.54653" lon="1.47846">
        <ele>213.214</ele>
        <time>2020-03-25T16:21:41Z</time>
      </trkpt>
      <trkpt lat="43.54664" lon="1.47839">
        <ele>213.229</ele>
        <time>2020-03-25T16:21:47Z</time>
      </trkpt>
      <trkpt lat="43.54665" lon="1.47836">
        <ele>213.241</ele>
        <time>2020-03-25T16:21:52Z</time>
      </trkpt>
      <trkpt lat="43.54664" lon="1.4783">
        <ele>213.256</ele>
        <time>2020-03-25T16:21:57Z</time>
      </trkpt>
      <trkpt lat="43.54665" lon="1.47831">
        <ele>213.279</ele>
        <time>2020-03-25T16:22:03Z</time>
      </trkpt>
      <trkpt lat="43.5467" lon="1.47835">
        <ele>213.294</ele>
        <time>2020-03-25T16:22:08Z</time>
      </trkpt>
      <trkpt lat="43.54671" lon="1.47836">
        <ele>213.301</ele>
        <time>2020-03-25T16:22:13Z</time>
      </trkpt>
      <trkpt lat="43.54671" lon="1.47836">
        <ele>213.299</ele>
        <time>2020-03-25T16:22:19Z</time>
      </trkpt>
      <trkpt lat="43.54672" lon="1.47835">
        <ele>213.296</ele>
        <time>2020-03-25T16:22:25Z</time>
      </trkpt>
      <trkpt lat="43.54672" lon="1.47835">
        <ele>213.28</ele>
        <time>2020-03-25T16:22:30Z</time>
      </trkpt>
      <trkpt lat="43.54675" lon="1.47839">
        <ele>213.259</ele>
        <time>2020-03-25T16:22:36Z</time>
      </trkpt>
      <trkpt lat="43.54679" lon="1.47843">
        <ele>213.246</ele>
        <time>2020-03-25T16:22:42Z</time>
      </trkpt>
      <trkpt lat="43.54681" lon="1.47847">
        <ele>213.241</ele>
        <time>2020-03-25T16:22:47Z</time>
      </trkpt>
      <trkpt lat="43.54685" lon="1.47849">
        <ele>213.237</ele>
        <time>2020-03-25T16:22:52Z</time>
      </trkpt>
      <trkpt lat="43.5469" lon="1.47851">
        <ele>213.241</ele>
        <time>2020-03-25T16:22:57Z</time>
      </trkpt>
      <trkpt lat="43.54696" lon="1.47855">
        <ele>213.245</ele>
        <time>2020-03-25T16:23:03Z</time>
      </trkpt>
      <trkpt lat="43.54701" lon="1.47859">
        <ele>213.249</ele>
        <time>2020-03-25T16:23:09Z</time>
      </trkpt>
      <trkpt lat="43.54703" lon="1.47861">
        <ele>213.245</ele>
        <time>2020-03-25T16:23:15Z</time>
      </trkpt>
      <trkpt lat="43.54706" lon="1.47862">
        <ele>213.241</ele>
        <time>2020-03-25T16:23:20Z</time>
      </trkpt>
      <trkpt lat="43.54711" lon="1.47862">
        <ele>213.241</ele>
        <time>2020-03-25T16:23:25Z</time>
      </trkpt>
      <trkpt lat="43.54725" lon="1.47859">
        <ele>213.247</ele>
        <time>2020-03-25T16:23:31Z</time>
      </trkpt>
      <trkpt lat="43.54732" lon="1.47859">
        <ele>213.252</ele>
        <time>2020-03-25T16:23:36Z</time>
      </trkpt>
      <trkpt lat="43.54738" lon="1.47861">
        <ele>213.253</ele>
        <time>2020-03-25T16:23:41Z</time>
      </trkpt>
      <trkpt lat="43.54743" lon="1.47862">
        <ele>213.255</ele>
        <time>2020-03-25T16:23:47Z</time>
      </trkpt>
      <trkpt lat="43.54748" lon="1.47858">
        <ele>213.258</ele>
        <time>2020-03-25T16:23:52Z</time>
      </trkpt>
      <trkpt lat="43.54752" lon="1.47854">
        <ele>213.258</ele>
        <time>2020-03-25T16:23:58Z</time>
      </trkpt>
      <trkpt lat="43.54758" lon="1.47847">
        <ele>213.26</ele>
        <time>2020-03-25T16:24:04Z</time>
      </trkpt>
      <trkpt lat="43.54762" lon="1.4784">
        <ele>213.266</ele>
        <time>2020-03-25T16:24:10Z</time>
      </trkpt>
      <trkpt lat="43.54765" lon="1.4783">
        <ele>213.281</ele>
        <time>2020-03-25T16:24:15Z</time>
      </trkpt>
      <trkpt lat="43.54769" lon="1.47826">
        <ele>213.306</ele>
        <time>2020-03-25T16:24:21Z</time>
      </trkpt>
      <trkpt lat="43.54771" lon="1.47819">
        <ele>213.322</ele>
        <time>2020-03-25T16:24:26Z</time>
      </trkpt>
      <trkpt lat="43.54776" lon="1.47814">
        <ele>213.339</ele>
        <time>2020-03-25T16:24:31Z</time>
      </trkpt>
      <trkpt lat="43.54778" lon="1.47811">
        <ele>213.356</ele>
        <time>2020-03-25T16:24:36Z</time>
      </trkpt>
      <trkpt lat="43.54781" lon="1.47804">
        <ele>213.377</ele>
        <time>2020-03-25T16:24:42Z</time>
      </trkpt>
      <trkpt lat="43.54786" lon="1.47799">
        <ele>213.391</ele>
        <time>2020-03-25T16:24:47Z</time>
      </trkpt>
      <trkpt lat="43.54794" lon="1.47795">
        <ele>213.407</ele>
        <time>2020-03-25T16:24:52Z</time>
      </trkpt>
      <trkpt lat="43.54797" lon="1.47792">
        <ele>213.422</ele>
        <time>2020-03-25T16:24:58Z</time>
      </trkpt>
      <trkpt lat="43.548" lon="1.47791">
        <ele>213.435</ele>
        <time>2020-03-25T16:25:03Z</time>
      </trkpt>
      <trkpt lat="43.54803" lon="1.47789">
        <ele>213.449</ele>
        <time>2020-03-25T16:25:08Z</time>
      </trkpt>
      <trkpt lat="43.5481" lon="1.47785">
        <ele>213.472</ele>
        <time>2020-03-25T16:25:14Z</time>
      </trkpt>
      <trkpt lat="43.54817" lon="1.47781">
        <ele>213.495</ele>
        <time>2020-03-25T16:25:20Z</time>
      </trkpt>
      <trkpt lat="43.54824" lon="1.47777">
        <ele>213.519</ele>
        <time>2020-03-25T16:25:26Z</time>
      </trkpt>
      <trkpt lat="43.54828" lon="1.47774">
        <ele>213.544</ele>
        <time>2020-03-25T16:25:32Z</time>
      </trkpt>
      <trkpt lat="43.54832" lon="1.47771">
        <ele>213.561</ele>
        <time>2020-03-25T16:25:37Z</time>
      </trkpt>
      <trkpt lat="43.54839" lon="1.47766">
        <ele>213.568</ele>
        <time>2020-03-25T16:25:43Z</time>
      </trkpt>
      <trkpt lat="43.54844" lon="1.47763">
        <ele>213.566</ele>
        <time>2020-03-25T16:25:48Z</time>
      </trkpt>
      <trkpt lat="43.54851" lon="1.47761">
        <ele>213.562</ele>
        <time>2020-03-25T16:25:54Z</time>
      </trkpt>
      <trkpt lat="43.54854" lon="1.47759">
        <ele>213.559</ele>
        <time>2020-03-25T16:25:59Z</time>
      </trkpt>
      <trkpt lat="43.54857" lon="1.47756">
        <ele>213.558</ele>
        <time>2020-03-25T16:26:04Z</time>
      </trkpt>
      <trkpt lat="43.54859" lon="1.47753">
        <ele>213.553</ele>
        <time>2020-03-25T16:26:10Z</time>
      </trkpt>
      <trkpt lat="43.54862" lon="1.4775">
        <ele>213.555</ele>
        <time>2020-03-25T16:26:16Z</time>
      </trkpt>
      <trkpt lat="43.54868" lon="1.47745">
        <ele>213.556</ele>
        <time>2020-03-25T16:26:22Z</time>
      </trkpt>
      <trkpt lat="43.54873" lon="1.47743">
        <ele>213.548</ele>
        <time>2020-03-25T16:26:28Z</time>
      </trkpt>
      <trkpt lat="43.54881" lon="1.47741">
        <ele>213.526</ele>
        <time>2020-03-25T16:26:34Z</time>
      </trkpt>
      <trkpt lat="43.54888" lon="1.47735">
        <ele>213.498</ele>
        <time>2020-03-25T16:26:40Z</time>
      </trkpt>
      <trkpt lat="43.54891" lon="1.47732">
        <ele>213.462</ele>
        <time>2020-03-25T16:26:46Z</time>
      </trkpt>
      <trkpt lat="43.54896" lon="1.47729">
        <ele>213.424</ele>
        <time>2020-03-25T16:26:51Z</time>
      </trkpt>
      <trkpt lat="43.54902" lon="1.47728">
        <ele>213.376</ele>
        <time>2020-03-25T16:26:57Z</time>
      </trkpt>
      <trkpt lat="43.54909" lon="1.47725">
        <ele>213.328</ele>
        <time>2020-03-25T16:27:03Z</time>
      </trkpt>
      <trkpt lat="43.54917" lon="1.47722">
        <ele>213.289</ele>
        <time>2020-03-25T16:27:09Z</time>
      </trkpt>
      <trkpt lat="43.54924" lon="1.47721">
        <ele>213.253</ele>
        <time>2020-03-25T16:27:15Z</time>
      </trkpt>
      <trkpt lat="43.5493" lon="1.47716">
        <ele>213.225</ele>
        <time>2020-03-25T16:27:21Z</time>
      </trkpt>
      <trkpt lat="43.54933" lon="1.47711">
        <ele>213.199</ele>
        <time>2020-03-25T16:27:27Z</time>
      </trkpt>
      <trkpt lat="43.54938" lon="1.47707">
        <ele>213.179</ele>
        <time>2020-03-25T16:27:32Z</time>
      </trkpt>
      <trkpt lat="43.54946" lon="1.47705">
        <ele>213.156</ele>
        <time>2020-03-25T16:27:38Z</time>
      </trkpt>
      <trkpt lat="43.5495" lon="1.47703">
        <ele>213.136</ele>
        <time>2020-03-25T16:27:43Z</time>
      </trkpt>
      <trkpt lat="43.54956" lon="1.477">
        <ele>213.109</ele>
        <time>2020-03-25T16:27:49Z</time>
      </trkpt>
      <trkpt lat="43.54962" lon="1.47697">
        <ele>213.078</ele>
        <time>2020-03-25T16:27:55Z</time>
      </trkpt>
      <trkpt lat="43.54967" lon="1.47693">
        <ele>213.049</ele>
        <time>2020-03-25T16:28:00Z</time>
      </trkpt>
      <trkpt lat="43.54975" lon="1.4769">
        <ele>213.014</ele>
        <time>2020-03-25T16:28:05Z</time>
      </trkpt>
      <trkpt lat="43.54979" lon="1.47688">
        <ele>212.972</ele>
        <time>2020-03-25T16:28:10Z</time>
      </trkpt>
      <trkpt lat="43.54985" lon="1.47685">
        <ele>212.917</ele>
        <time>2020-03-25T16:28:16Z</time>
      </trkpt>
      <trkpt lat="43.5499" lon="1.47681">
        <ele>212.871</ele>
        <time>2020-03-25T16:28:22Z</time>
      </trkpt>
      <trkpt lat="43.54995" lon="1.47678">
        <ele>212.829</ele>
        <time>2020-03-25T16:28:28Z</time>
      </trkpt>
      <trkpt lat="43.55001" lon="1.47674">
        <ele>212.778</ele>
        <time>2020-03-25T16:28:34Z</time>
      </trkpt>
      <trkpt lat="43.55007" lon="1.47672">
        <ele>212.731</ele>
        <time>2020-03-25T16:28:39Z</time>
      </trkpt>
      <trkpt lat="43.55014" lon="1.47672">
        <ele>212.68</ele>
        <time>2020-03-25T16:28:45Z</time>
      </trkpt>
      <trkpt lat="43.55017" lon="1.47673">
        <ele>212.639</ele>
        <time>2020-03-25T16:28:51Z</time>
      </trkpt>
      <trkpt lat="43.55021" lon="1.47673">
        <ele>212.592</ele>
        <time>2020-03-25T16:28:57Z</time>
      </trkpt>
      <trkpt lat="43.55029" lon="1.47671">
        <ele>212.552</ele>
        <time>2020-03-25T16:29:03Z</time>
      </trkpt>
      <trkpt lat="43.55032" lon="1.47673">
        <ele>212.523</ele>
        <time>2020-03-25T16:29:09Z</time>
      </trkpt>
      <trkpt lat="43.55033" lon="1.47676">
        <ele>212.51</ele>
        <time>2020-03-25T16:29:14Z</time>
      </trkpt>
      <trkpt lat="43.55034" lon="1.47675">
        <ele>212.491</ele>
        <time>2020-03-25T16:29:20Z</time>
      </trkpt>
      <trkpt lat="43.55034" lon="1.47675">
        <ele>212.489</ele>
        <time>2020-03-25T16:29:26Z</time>
      </trkpt>
      <trkpt lat="43.55036" lon="1.47677">
        <ele>212.464</ele>
        <time>2020-03-25T16:29:35Z</time>
      </trkpt>
    </trkseg>
  </trk>
</gpx>